Bruk link Alternativ webside om du vil se statistikk,rapport,graf,analyse og mye mer.

Vårt webkamera more information My webcam


webkamera på Randaberg more information webcam on Randaberg


Nedbørsradar  rain snow radar


Besøk vår andre værside:

Alternativ webside

Alternativ mobil

Regnskvett RandabergWebsite of another weatherstation



Nære METAR rapporter

   
ENHD - Haugesund
oppdatert: 17-05-2022 13:20
Klart  
Klart  
   Vind: SØ 5.7 m/s
Vind: SØ 5.7 m/s
Temperatur: 18°C
Duggpunkt: -1°C
Fuktighet: 28%
Barometer: 1023 hPa
Sikt: More than 10 km
Skydetaljer: Klart
ENHD 171120Z 14011KT CAVOK 18/M01 Q1023
ENZV - Randaberg
oppdatert: 17-05-2022 13:20
Klart  
Klart  
   Vind: SSØ 6.7 m/s
Vind: SSØ 6.7 m/s
Temperatur: 19°C
Duggpunkt: 1°C
Fuktighet: 30%
Barometer: 1022 hPa
Sikt: More than 10 km
Skydetaljer: Klart
ENZV 171120Z 15013KT CAVOK 19/01 Q1022 NOSIG
ENBR - Bergen
oppdatert: 17-05-2022 13:20
Klart  
Klart  
   Vind: VSV 2.1 m/s
Vind: VSV 2.1 m/s
Temperatur: 19°C
Duggpunkt: -2°C
Fuktighet: 24%
Barometer: 1023 hPa
Sikt: More than 10 km
Skydetaljer: Klart
ENBR 171120Z 24004KT 160V280 CAVOK 19/M02 Q1023 NOSIG RMK WIND 1200FT VRB05KT
ENCN - Kristiansand
oppdatert: 17-05-2022 13:20
Delvis Skyet  
Delvis Skyet  
   Vind: Øst 5.7 m/s
Vind: Øst 5.7 m/s
Temperatur: 14°C
Duggpunkt: 2°C
Fuktighet: 44%
Barometer: 1026 hPa
Skyer: Delvis Skyet
Sikt: More than 10 km
Skydetaljer: Delvis Skyet 5791.2 m
ENCN 171120Z AUTO 09011KT 050V120 9999 SCT190/// 14/02 Q1026
ENGM - Oslo
oppdatert: 17-05-2022 13:20
Klart  
Klart  
   Vind: varierer 1.5 m/s
Vind: varierer 1.5 m/s
Temperatur: 13°C
Duggpunkt: -4°C
Fuktighet: 31%
Barometer: 1026 hPa
Sikt: More than 10 km
Skydetaljer: Klart
ENGM 171120Z VRB03KT CAVOK 13/M04 Q1026 NOSIG
ENVA - Trondheim
oppdatert: 17-05-2022 13:20
Klart  
Klart  
   Vind: varierer 2.1 m/s
Vind: varierer 2.1 m/s
Temperatur: 14°C
Duggpunkt: -5°C
Fuktighet: 27%
Barometer: 1024 hPa
Sikt: More than 10 km
Skydetaljer: Klart
ENVA 171120Z VRB04KT CAVOK 14/M05 Q1024 NOSIG RMK WIND 670FT VRB06KT

Script utviklet av  Saratoga-weather.org Tilrettelagt for malen av  Weerstation Leuven

Du finner vår vær info også på:

European Weather Network

WeatherCloud

Weather Underground

Citizen Weather Observer Program (CWOP)

Utstyr vi bruker:

Værstsjon
Oregon scientific WMR 300

Værprogram
Meteobridge

Oregon scientific WMR 300

Meteobridge